sensor_id;sensor_type;location;lat;lon;timestamp;P1;durP1;ratioP1;P2;durP2;ratioP2
76989;SDS011;65924;47.250;11.332;2022-12-11T00:00:00;3.80;;;3.20;;
76989;SDS011;65924;47.250;11.332;2022-12-11T00:00:31;4.00;;;3.30;;
76989;SDS011;65924;47.250;11.332;2022-12-11T00:01:06;4.40;;;3.30;;
76989;SDS011;65924;47.250;11.332;2022-12-11T00:01:35;5.10;;;3.10;;
76989;SDS011;65924;47.250;11.332;2022-12-11T00:02:02;4.00;;;3.30;;
76989;SDS011;65924;47.250;11.332;2022-12-11T00:02:30;4.70;;;3.60;;
76989;SDS011;65924;47.250;11.332;2022-12-11T00:02:58;4.90;;;3.60;;
76989;SDS011;65924;47.250;11.332;2022-12-11T00:03:26;4.40;;;3.50;;
76989;SDS011;65924;47.250;11.332;2022-12-11T00:03:53;4.10;;;3.50;;
76989;SDS011;65924;47.250;11.332;2022-12-11T00:04:21;3.70;;;2.90;;
76989;SDS011;65924;47.250;11.332;2022-12-11T00:04:49;4.20;;;3.30;;
76989;SDS011;65924;47.250;11.332;2022-12-11T00:05:16;4.20;;;3.20;;
76989;SDS011;65924;47.250;11.332;2022-12-11T00:05:44;4.30;;;3.00;;
76989;SDS011;65924;47.250;11.332;2022-12-11T00:06:14;4.40;;;2.90;;
76989;SDS011;65924;47.250;11.332;2022-12-11T00:06:44;4.50;;;2.90;;
76989;SDS011;65924;47.250;11.332;2022-12-11T00:07:11;3.80;;;2.80;;
76989;SDS011;65924;47.250;11.332;2022-12-11T00:07:39;3.50;;;2.90;;
76989;SDS011;65924;47.250;11.332;2022-12-11T00:08:07;3.30;;;2.70;;
76989;SDS011;65924;47.250;11.332;2022-12-11T00:08:35;3.80;;;3.00;;
76989;SDS011;65924;47.250;11.332;2022-12-11T00:09:03;4.30;;;2.90;;
76989;SDS011;65924;47.250;11.332;2022-12-11T00:09:30;3.50;;;2.70;;
76989;SDS011;65924;47.250;11.332;2022-12-11T00:09:58;4.00;;;2.80;;
76989;SDS011;65924;47.250;11.332;2022-12-11T00:10:26;3.20;;;2.50;;
76989;SDS011;65924;47.250;11.332;2022-12-11T00:10:53;3.70;;;2.80;;
76989;SDS011;65924;47.250;11.332;2022-12-11T00:11:21;3.40;;;2.70;;
76989;SDS011;65924;47.250;11.332;2022-12-11T00:11:49;4.10;;;3.00;;
76989;SDS011;65924;47.250;11.332;2022-12-11T00:12:17;3.70;;;2.90;;
76989;SDS011;65924;47.250;11.332;2022-12-11T00:12:44;3.30;;;2.70;;
76989;SDS011;65924;47.250;11.332;2022-12-11T00:13:12;3.50;;;2.80;;
76989;SDS011;65924;47.250;11.332;2022-12-11T00:13:39;4.20;;;3.10;;
76989;SDS011;65924;47.250;11.332;2022-12-11T00:14:07;3.50;;;3.00;;
76989;SDS011;65924;47.250;11.332;2022-12-11T00:14:35;4.40;;;3.30;;
76989;SDS011;65924;47.250;11.332;2022-12-11T00:15:04;4.00;;;3.20;;
76989;SDS011;65924;47.250;11.332;2022-12-11T00:15:31;4.90;;;3.60;;
76989;SDS011;65924;47.250;11.332;2022-12-11T00:15:59;4.20;;;3.40;;
76989;SDS011;65924;47.250;11.332;2022-12-11T00:16:27;5.20;;;3.80;;
76989;SDS011;65924;47.250;11.332;2022-12-11T00:16:54;5.20;;;4.10;;
76989;SDS011;65924;47.250;11.332;2022-12-11T00:17:21;5.00;;;4.10;;
76989;SDS011;65924;47.250;11.332;2022-12-11T00:17:49;5.30;;;4.10;;
76989;SDS011;65924;47.250;11.332;2022-12-11T00:18:17;4.70;;;4.10;;
76989;SDS011;65924;47.250;11.332;2022-12-11T00:18:45;5.10;;;3.90;;
76989;SDS011;65924;47.250;11.332;2022-12-11T00:19:12;4.50;;;3.60;;
76989;SDS011;65924;47.250;11.332;2022-12-11T00:19:40;4.70;;;3.90;;
76989;SDS011;65924;47.250;11.332;2022-12-11T00:20:07;4.50;;;3.80;;
76989;SDS011;65924;47.250;11.332;2022-12-11T00:20:36;4.60;;;3.80;;
76989;SDS011;65924;47.250;11.332;2022-12-11T00:21:04;4.70;;;3.80;;
76989;SDS011;65924;47.250;11.332;2022-12-11T00:21:37;4.80;;;3.30;;
76989;SDS011;65924;47.250;11.332;2022-12-11T00:22:04;4.70;;;3.30;;
76989;SDS011;65924;47.250;11.332;2022-12-11T00:22:32;4.20;;;3.40;;
76989;SDS011;65924;47.250;11.332;2022-12-11T00:22:59;4.10;;;3.20;;
76989;SDS011;65924;47.250;11.332;2022-12-11T00:23:27;4.40;;;3.20;;
76989;SDS011;65924;47.250;11.332;2022-12-11T00:23:55;3.90;;;3.20;;
76989;SDS011;65924;47.250;11.332;2022-12-11T00:24:22;3.50;;;2.80;;
76989;SDS011;65924;47.250;11.332;2022-12-11T00:24:50;3.90;;;3.10;;
76989;SDS011;65924;47.250;11.332;2022-12-11T00:25:18;3.50;;;2.90;;
76989;SDS011;65924;47.250;11.332;2022-12-11T00:25:46;3.90;;;3.10;;
76989;SDS011;65924;47.250;11.332;2022-12-11T00:26:14;4.30;;;3.20;;
76989;SDS011;65924;47.250;11.332;2022-12-11T00:26:42;4.50;;;3.10;;
76989;SDS011;65924;47.250;11.332;2022-12-11T00:27:10;3.90;;;3.30;;
76989;SDS011;65924;47.250;11.332;2022-12-11T00:27:37;4.10;;;3.30;;
76989;SDS011;65924;47.250;11.332;2022-12-11T00:28:05;4.40;;;3.10;;
76989;SDS011;65924;47.250;11.332;2022-12-11T00:28:32;3.70;;;3.20;;
76989;SDS011;65924;47.250;11.332;2022-12-11T00:29:00;3.80;;;2.80;;
76989;SDS011;65924;47.250;11.332;2022-12-11T00:29:27;3.90;;;3.10;;
76989;SDS011;65924;47.250;11.332;2022-12-11T00:29:55;3.60;;;3.10;;
76989;SDS011;65924;47.250;11.332;2022-12-11T00:30:22;3.80;;;3.10;;
76989;SDS011;65924;47.250;11.332;2022-12-11T00:30:50;3.90;;;3.10;;
76989;SDS011;65924;47.250;11.332;2022-12-11T00:31:18;4.10;;;3.40;;
76989;SDS011;65924;47.250;11.332;2022-12-11T00:31:46;4.20;;;3.00;;
76989;SDS011;65924;47.250;11.332;2022-12-11T00:32:14;4.00;;;3.00;;
76989;SDS011;65924;47.250;11.332;2022-12-11T00:32:41;4.10;;;3.20;;
76989;SDS011;65924;47.250;11.332;2022-12-11T00:33:10;3.70;;;3.10;;
76989;SDS011;65924;47.250;11.332;2022-12-11T00:33:40;4.10;;;3.20;;
76989;SDS011;65924;47.250;11.332;2022-12-11T00:34:08;4.00;;;3.00;;
76989;SDS011;65924;47.250;11.332;2022-12-11T00:34:38;4.20;;;3.10;;
76989;SDS011;65924;47.250;11.332;2022-12-11T00:35:05;4.40;;;3.30;;
76989;SDS011;65924;47.250;11.332;2022-12-11T00:35:36;4.00;;;3.20;;
76989;SDS011;65924;47.250;11.332;2022-12-11T00:36:37;4.40;;;3.40;;
76989;SDS011;65924;47.250;11.332;2022-12-11T00:37:05;4.40;;;3.40;;
76989;SDS011;65924;47.250;11.332;2022-12-11T00:37:32;5.40;;;3.50;;
76989;SDS011;65924;47.250;11.332;2022-12-11T00:38:00;5.60;;;3.90;;
76989;SDS011;65924;47.250;11.332;2022-12-11T00:38:27;4.50;;;3.30;;
76989;SDS011;65924;47.250;11.332;2022-12-11T00:38:55;4.70;;;3.50;;
76989;SDS011;65924;47.250;11.332;2022-12-11T00:39:23;4.30;;;3.40;;
76989;SDS011;65924;47.250;11.332;2022-12-11T00:39:50;4.40;;;3.50;;
76989;SDS011;65924;47.250;11.332;2022-12-11T00:40:18;6.40;;;4.10;;
76989;SDS011;65924;47.250;11.332;2022-12-11T00:40:46;5.10;;;4.00;;
76989;SDS011;65924;47.250;11.332;2022-12-11T00:41:15;6.70;;;5.40;;
76989;SDS011;65924;47.250;11.332;2022-12-11T00:41:43;6.30;;;5.00;;
76989;SDS011;65924;47.250;11.332;2022-12-11T00:42:11;5.20;;;4.10;;
76989;SDS011;65924;47.250;11.332;2022-12-11T00:42:39;6.20;;;4.40;;
76989;SDS011;65924;47.250;11.332;2022-12-11T00:43:06;5.60;;;4.10;;
76989;SDS011;65924;47.250;11.332;2022-12-11T00:43:34;5.50;;;4.00;;
76989;SDS011;65924;47.250;11.332;2022-12-11T00:44:02;4.50;;;3.50;;
76989;SDS011;65924;47.250;11.332;2022-12-11T00:44:30;4.00;;;3.30;;
76989;SDS011;65924;47.250;11.332;2022-12-11T00:44:58;4.90;;;3.40;;
76989;SDS011;65924;47.250;11.332;2022-12-11T00:45:25;4.60;;;3.40;;
76989;SDS011;65924;47.250;11.332;2022-12-11T00:45:53;3.90;;;3.00;;
76989;SDS011;65924;47.250;11.332;2022-12-11T00:46:20;4.40;;;3.40;;
76989;SDS011;65924;47.250;11.332;2022-12-11T00:46:48;4.20;;;3.60;;
76989;SDS011;65924;47.250;11.332;2022-12-11T00:47:15;5.10;;;3.90;;
76989;SDS011;65924;47.250;11.332;2022-12-11T00:47:43;7.50;;;5.20;;
76989;SDS011;65924;47.250;11.332;2022-12-11T00:48:11;7.20;;;5.40;;
76989;SDS011;65924;47.250;11.332;2022-12-11T00:48:39;6.90;;;5.20;;
76989;SDS011;65924;47.250;11.332;2022-12-11T00:49:07;7.90;;;5.50;;
76989;SDS011;65924;47.250;11.332;2022-12-11T00:49:34;7.60;;;5.50;;
76989;SDS011;65924;47.250;11.332;2022-12-11T00:50:02;6.70;;;5.30;;
76989;SDS011;65924;47.250;11.332;2022-12-11T00:50:30;7.60;;;5.80;;
76989;SDS011;65924;47.250;11.332;2022-12-11T00:50:58;8.60;;;6.50;;
76989;SDS011;65924;47.250;11.332;2022-12-11T00:51:26;10.80;;;7.70;;
76989;SDS011;65924;47.250;11.332;2022-12-11T00:51:53;11.10;;;7.90;;
76989;SDS011;65924;47.250;11.332;2022-12-11T00:52:21;10.70;;;7.80;;
76989;SDS011;65924;47.250;11.332;2022-12-11T00:52:50;9.10;;;7.20;;
76989;SDS011;65924;47.250;11.332;2022-12-11T00:53:18;9.20;;;6.80;;
76989;SDS011;65924;47.250;11.332;2022-12-11T00:53:45;10.50;;;6.70;;
76989;SDS011;65924;47.250;11.332;2022-12-11T00:54:13;8.30;;;6.90;;
76989;SDS011;65924;47.250;11.332;2022-12-11T00:54:40;7.10;;;5.50;;
76989;SDS011;65924;47.250;11.332;2022-12-11T00:55:08;6.30;;;5.20;;
76989;SDS011;65924;47.250;11.332;2022-12-11T00:55:37;6.70;;;5.40;;
76989;SDS011;65924;47.250;11.332;2022-12-11T00:56:12;7.10;;;5.10;;
76989;SDS011;65924;47.250;11.332;2022-12-11T00:56:42;6.90;;;5.20;;
76989;SDS011;65924;47.250;11.332;2022-12-11T00:57:09;5.50;;;4.40;;
76989;SDS011;65924;47.250;11.332;2022-12-11T00:57:37;5.90;;;4.20;;
76989;SDS011;65924;47.250;11.332;2022-12-11T00:58:04;5.10;;;4.10;;
76989;SDS011;65924;47.250;11.332;2022-12-11T00:58:33;5.10;;;3.80;;
76989;SDS011;65924;47.250;11.332;2022-12-11T00:59:00;5.00;;;4.30;;
76989;SDS011;65924;47.250;11.332;2022-12-11T00:59:28;5.20;;;3.80;;
76989;SDS011;65924;47.250;11.332;2022-12-11T00:59:56;6.30;;;3.60;;
76989;SDS011;65924;47.250;11.332;2022-12-11T01:00:23;4.70;;;3.50;;
76989;SDS011;65924;47.250;11.332;2022-12-11T01:00:51;5.40;;;4.10;;
76989;SDS011;65924;47.250;11.332;2022-12-11T01:01:20;4.60;;;3.70;;
76989;SDS011;65924;47.250;11.332;2022-12-11T01:01:49;5.90;;;4.50;;
76989;SDS011;65924;47.250;11.332;2022-12-11T01:02:17;5.50;;;4.50;;
76989;SDS011;65924;47.250;11.332;2022-12-11T01:02:44;5.50;;;4.30;;
76989;SDS011;65924;47.250;11.332;2022-12-11T01:03:13;6.10;;;4.70;;
76989;SDS011;65924;47.250;11.332;2022-12-11T01:03:41;6.20;;;4.40;;
76989;SDS011;65924;47.250;11.332;2022-12-11T01:04:09;5.40;;;4.50;;
76989;SDS011;65924;47.250;11.332;2022-12-11T01:04:36;5.40;;;4.40;;
76989;SDS011;65924;47.250;11.332;2022-12-11T01:05:04;4.70;;;3.90;;
76989;SDS011;65924;47.250;11.332;2022-12-11T01:05:32;5.20;;;3.80;;
76989;SDS011;65924;47.250;11.332;2022-12-11T01:06:02;4.30;;;3.30;;
76989;SDS011;65924;47.250;11.332;2022-12-11T01:06:30;5.50;;;4.00;;
76989;SDS011;65924;47.250;11.332;2022-12-11T01:06:58;4.40;;;3.30;;
76989;SDS011;65924;47.250;11.332;2022-12-11T01:07:25;4.20;;;3.40;;
76989;SDS011;65924;47.250;11.332;2022-12-11T01:07:53;4.50;;;3.50;;
76989;SDS011;65924;47.250;11.332;2022-12-11T01:08:20;5.10;;;3.80;;
76989;SDS011;65924;47.250;11.332;2022-12-11T01:08:48;4.10;;;3.60;;
76989;SDS011;65924;47.250;11.332;2022-12-11T01:09:35;4.00;;;3.30;;
76989;SDS011;65924;47.250;11.332;2022-12-11T01:10:21;5.30;;;3.70;;
76989;SDS011;65924;47.250;11.332;2022-12-11T01:10:59;4.80;;;3.80;;
76989;SDS011;65924;47.250;11.332;2022-12-11T01:11:28;4.70;;;3.50;;
76989;SDS011;65924;47.250;11.332;2022-12-11T01:11:58;4.90;;;3.30;;
76989;SDS011;65924;47.250;11.332;2022-12-11T01:12:26;4.80;;;3.50;;
76989;SDS011;65924;47.250;11.332;2022-12-11T01:12:55;4.60;;;3.60;;
76989;SDS011;65924;47.250;11.332;2022-12-11T01:13:25;5.00;;;3.20;;
76989;SDS011;65924;47.250;11.332;2022-12-11T01:13:52;5.10;;;4.10;;
76989;SDS011;65924;47.250;11.332;2022-12-11T01:14:20;4.80;;;3.60;;
76989;SDS011;65924;47.250;11.332;2022-12-11T01:14:47;4.80;;;3.70;;
76989;SDS011;65924;47.250;11.332;2022-12-11T01:15:15;5.10;;;3.90;;
76989;SDS011;65924;47.250;11.332;2022-12-11T01:15:43;5.10;;;3.70;;
76989;SDS011;65924;47.250;11.332;2022-12-11T01:16:12;5.60;;;4.30;;
76989;SDS011;65924;47.250;11.332;2022-12-11T01:16:41;5.00;;;3.80;;
76989;SDS011;65924;47.250;11.332;2022-12-11T01:17:09;5.20;;;4.20;;
76989;SDS011;65924;47.250;11.332;2022-12-11T01:17:36;5.80;;;4.00;;
76989;SDS011;65924;47.250;11.332;2022-12-11T01:18:04;4.30;;;3.30;;
76989;SDS011;65924;47.250;11.332;2022-12-11T01:18:32;4.40;;;3.70;;
76989;SDS011;65924;47.250;11.332;2022-12-11T01:18:59;5.00;;;3.80;;
76989;SDS011;65924;47.250;11.332;2022-12-11T01:19:27;4.90;;;3.90;;
76989;SDS011;65924;47.250;11.332;2022-12-11T01:19:54;4.50;;;3.60;;
76989;SDS011;65924;47.250;11.332;2022-12-11T01:20:25;5.40;;;3.70;;
76989;SDS011;65924;47.250;11.332;2022-12-11T01:20:54;5.50;;;4.10;;
76989;SDS011;65924;47.250;11.332;2022-12-11T01:21:21;4.30;;;3.30;;
76989;SDS011;65924;47.250;11.332;2022-12-11T01:21:49;5.10;;;3.80;;
76989;SDS011;65924;47.250;11.332;2022-12-11T01:22:16;4.90;;;3.60;;
76989;SDS011;65924;47.250;11.332;2022-12-11T01:22:44;4.50;;;3.50;;
76989;SDS011;65924;47.250;11.332;2022-12-11T01:23:12;4.50;;;3.30;;
76989;SDS011;65924;47.250;11.332;2022-12-11T01:23:39;4.30;;;3.40;;
76989;SDS011;65924;47.250;11.332;2022-12-11T01:24:07;4.90;;;3.60;;
76989;SDS011;65924;47.250;11.332;2022-12-11T01:24:34;5.10;;;3.90;;
76989;SDS011;65924;47.250;11.332;2022-12-11T01:25:02;5.20;;;3.40;;
76989;SDS011;65924;47.250;11.332;2022-12-11T01:25:31;4.00;;;3.40;;
76989;SDS011;65924;47.250;11.332;2022-12-11T01:26:07;4.60;;;3.50;;
76989;SDS011;65924;47.250;11.332;2022-12-11T01:26:39;4.00;;;3.00;;
76989;SDS011;65924;47.250;11.332;2022-12-11T01:27:06;4.70;;;3.40;;
76989;SDS011;65924;47.250;11.332;2022-12-11T01:27:35;4.20;;;3.40;;
76989;SDS011;65924;47.250;11.332;2022-12-11T01:28:04;4.20;;;3.50;;
76989;SDS011;65924;47.250;11.332;2022-12-11T01:28:32;4.20;;;3.40;;
76989;SDS011;65924;47.250;11.332;2022-12-11T01:28:59;4.10;;;3.60;;
76989;SDS011;65924;47.250;11.332;2022-12-11T01:29:27;4.60;;;3.40;;
76989;SDS011;65924;47.250;11.332;2022-12-11T01:29:55;4.40;;;3.50;;
76989;SDS011;65924;47.250;11.332;2022-12-11T01:30:23;4.60;;;3.70;;
76989;SDS011;65924;47.250;11.332;2022-12-11T01:30:52;4.70;;;3.60;;
76989;SDS011;65924;47.250;11.332;2022-12-11T01:31:19;5.00;;;3.70;;
76989;SDS011;65924;47.250;11.332;2022-12-11T01:31:47;5.20;;;3.60;;
76989;SDS011;65924;47.250;11.332;2022-12-11T01:32:14;4.50;;;3.50;;
76989;SDS011;65924;47.250;11.332;2022-12-11T01:32:42;5.30;;;4.00;;
76989;SDS011;65924;47.250;11.332;2022-12-11T01:33:09;6.40;;;3.70;;
76989;SDS011;65924;47.250;11.332;2022-12-11T01:33:37;5.10;;;3.70;;
76989;SDS011;65924;47.250;11.332;2022-12-11T01:34:05;5.00;;;4.10;;
76989;SDS011;65924;47.250;11.332;2022-12-11T01:34:33;5.10;;;4.00;;
76989;SDS011;65924;47.250;11.332;2022-12-11T01:35:04;4.80;;;3.70;;
76989;SDS011;65924;47.250;11.332;2022-12-11T01:35:33;5.60;;;3.50;;
76989;SDS011;65924;47.250;11.332;2022-12-11T01:36:05;5.60;;;3.80;;
76989;SDS011;65924;47.250;11.332;2022-12-11T01:36:44;4.80;;;3.60;;
76989;SDS011;65924;47.250;11.332;2022-12-11T01:37:11;4.70;;;3.50;;
76989;SDS011;65924;47.250;11.332;2022-12-11T01:37:39;5.00;;;3.70;;
76989;SDS011;65924;47.250;11.332;2022-12-11T01:38:07;4.30;;;3.40;;
76989;SDS011;65924;47.250;11.332;2022-12-11T01:38:36;4.20;;;3.40;;
76989;SDS011;65924;47.250;11.332;2022-12-11T01:39:03;4.90;;;3.50;;
76989;SDS011;65924;47.250;11.332;2022-12-11T01:39:31;4.70;;;3.90;;
76989;SDS011;65924;47.250;11.332;2022-12-11T01:39:59;4.90;;;3.80;;
76989;SDS011;65924;47.250;11.332;2022-12-11T01:40:27;4.30;;;3.30;;
76989;SDS011;65924;47.250;11.332;2022-12-11T01:40:55;4.70;;;3.40;;
76989;SDS011;65924;47.250;11.332;2022-12-11T01:41:23;5.10;;;3.70;;
76989;SDS011;65924;47.250;11.332;2022-12-11T01:41:55;4.50;;;3.60;;
76989;SDS011;65924;47.250;11.332;2022-12-11T01:42:27;5.70;;;4.00;;
76989;SDS011;65924;47.250;11.332;2022-12-11T01:42:55;5.00;;;3.90;;
76989;SDS011;65924;47.250;11.332;2022-12-11T01:43:23;4.90;;;4.00;;
76989;SDS011;65924;47.250;11.332;2022-12-11T01:45:48;5.00;;;3.70;;
76989;SDS011;65924;47.250;11.332;2022-12-11T01:46:16;5.60;;;4.40;;
76989;SDS011;65924;47.250;11.332;2022-12-11T01:46:43;4.80;;;3.60;;
76989;SDS011;65924;47.250;11.332;2022-12-11T01:47:12;5.50;;;4.00;;
76989;SDS011;65924;47.250;11.332;2022-12-11T01:47:40;5.50;;;4.20;;
76989;SDS011;65924;47.250;11.332;2022-12-11T01:48:12;5.50;;;4.20;;
76989;SDS011;65924;47.250;11.332;2022-12-11T01:48:44;5.40;;;4.00;;
76989;SDS011;65924;47.250;11.332;2022-12-11T01:49:13;5.40;;;4.10;;
76989;SDS011;65924;47.250;11.332;2022-12-11T01:49:43;4.70;;;3.80;;
76989;SDS011;65924;47.250;11.332;2022-12-11T01:50:10;5.00;;;4.00;;
76989;SDS011;65924;47.250;11.332;2022-12-11T01:50:43;5.30;;;4.10;;
76989;SDS011;65924;47.250;11.332;2022-12-11T01:51:16;4.90;;;3.80;;
76989;SDS011;65924;47.250;11.332;2022-12-11T01:51:49;5.50;;;3.90;;
76989;SDS011;65924;47.250;11.332;2022-12-11T01:52:20;5.20;;;4.10;;
76989;SDS011;65924;47.250;11.332;2022-12-11T01:52:48;5.20;;;4.00;;
76989;SDS011;65924;47.250;11.332;2022-12-11T01:53:21;5.10;;;3.70;;
76989;SDS011;65924;47.250;11.332;2022-12-11T01:53:58;5.00;;;3.70;;
76989;SDS011;65924;47.250;11.332;2022-12-11T01:54:30;5.00;;;3.80;;
76989;SDS011;65924;47.250;11.332;2022-12-11T01:54:58;4.50;;;3.50;;
76989;SDS011;65924;47.250;11.332;2022-12-11T01:55:26;5.10;;;3.60;;
76989;SDS011;65924;47.250;11.332;2022-12-11T01:55:54;5.00;;;4.00;;
76989;SDS011;65924;47.250;11.332;2022-12-11T01:56:23;4.60;;;3.50;;
76989;SDS011;65924;47.250;11.332;2022-12-11T01:56:52;5.90;;;3.90;;
76989;SDS011;65924;47.250;11.332;2022-12-11T01:57:21;5.10;;;3.90;;
76989;SDS011;65924;47.250;11.332;2022-12-11T01:57:49;5.10;;;4.00;;
76989;SDS011;65924;47.250;11.332;2022-12-11T01:58:19;5.70;;;4.30;;
76989;SDS011;65924;47.250;11.332;2022-12-11T01:58:51;5.60;;;4.00;;
76989;SDS011;65924;47.250;11.332;2022-12-11T01:59:23;5.40;;;3.60;;
76989;SDS011;65924;47.250;11.332;2022-12-11T01:59:53;5.00;;;3.70;;
76989;SDS011;65924;47.250;11.332;2022-12-11T02:00:22;5.30;;;3.60;;
76989;SDS011;65924;47.250;11.332;2022-12-11T02:00:50;6.10;;;4.00;;
76989;SDS011;65924;47.250;11.332;2022-12-11T02:02:02;5.10;;;4.20;;
76989;SDS011;65924;47.250;11.332;2022-12-11T02:02:18;5.50;;;4.10;;
76989;SDS011;65924;47.250;11.332;2022-12-11T02:02:49;5.50;;;4.00;;
76989;SDS011;65924;47.250;11.332;2022-12-11T02:03:17;5.70;;;4.20;;
76989;SDS011;65924;47.250;11.332;2022-12-11T02:03:44;5.30;;;4.10;;
76989;SDS011;65924;47.250;11.332;2022-12-11T02:04:12;4.90;;;3.90;;
76989;SDS011;65924;47.250;11.332;2022-12-11T02:04:41;4.80;;;3.80;;
76989;SDS011;65924;47.250;11.332;2022-12-11T02:05:12;4.70;;;3.80;;
76989;SDS011;65924;47.250;11.332;2022-12-11T02:05:40;5.60;;;4.30;;
76989;SDS011;65924;47.250;11.332;2022-12-11T02:06:26;5.40;;;4.30;;
76989;SDS011;65924;47.250;11.332;2022-12-11T02:07:06;5.10;;;3.80;;
76989;SDS011;65924;47.250;11.332;2022-12-11T02:07:37;5.50;;;4.40;;
76989;SDS011;65924;47.250;11.332;2022-12-11T02:08:16;6.00;;;4.40;;
76989;SDS011;65924;47.250;11.332;2022-12-11T02:08:44;6.00;;;4.00;;
76989;SDS011;65924;47.250;11.332;2022-12-11T02:09:15;6.20;;;4.20;;
76989;SDS011;65924;47.250;11.332;2022-12-11T02:09:46;5.20;;;4.10;;
76989;SDS011;65924;47.250;11.332;2022-12-11T02:10:15;5.30;;;4.10;;
76989;SDS011;65924;47.250;11.332;2022-12-11T02:10:47;6.40;;;4.20;;
76989;SDS011;65924;47.250;11.332;2022-12-11T02:13:12;6.00;;;4.50;;
76989;SDS011;65924;47.250;11.332;2022-12-11T02:14:12;5.20;;;4.10;;
76989;SDS011;65924;47.250;11.332;2022-12-11T02:16:18;5.50;;;3.80;;
76989;SDS011;65924;47.250;11.332;2022-12-11T02:16:54;5.50;;;4.10;;
76989;SDS011;65924;47.250;11.332;2022-12-11T02:21:31;7.20;;;5.50;;
76989;SDS011;65924;47.250;11.332;2022-12-11T02:22:05;5.40;;;4.00;;
76989;SDS011;65924;47.250;11.332;2022-12-11T02:25:20;6.40;;;4.50;;
76989;SDS011;65924;47.250;11.332;2022-12-11T02:27:46;6.60;;;4.70;;
76989;SDS011;65924;47.250;11.332;2022-12-11T02:29:00;6.60;;;4.20;;
76989;SDS011;65924;47.250;11.332;2022-12-11T02:30:25;6.50;;;4.90;;
76989;SDS011;65924;47.250;11.332;2022-12-11T02:30:58;6.80;;;4.70;;
76989;SDS011;65924;47.250;11.332;2022-12-11T02:31:38;6.60;;;4.70;;
76989;SDS011;65924;47.250;11.332;2022-12-11T02:32:13;6.70;;;4.70;;
76989;SDS011;65924;47.250;11.332;2022-12-11T02:33:21;6.00;;;4.50;;
76989;SDS011;65924;47.250;11.332;2022-12-11T02:33:57;6.20;;;4.60;;
76989;SDS011;65924;47.250;11.332;2022-12-11T02:34:33;6.10;;;4.30;;
76989;SDS011;65924;47.250;11.332;2022-12-11T02:35:58;5.60;;;4.00;;
76989;SDS011;65924;47.250;11.332;2022-12-11T02:36:28;6.30;;;4.60;;
76989;SDS011;65924;47.250;11.332;2022-12-11T02:37:03;5.90;;;4.20;;
76989;SDS011;65924;47.250;11.332;2022-12-11T02:37:35;7.00;;;4.30;;
76989;SDS011;65924;47.250;11.332;2022-12-11T02:38:07;6.60;;;4.40;;
76989;SDS011;65924;47.250;11.332;2022-12-11T02:38:39;5.70;;;4.40;;
76989;SDS011;65924;47.250;11.332;2022-12-11T02:39:09;7.10;;;4.90;;
76989;SDS011;65924;47.250;11.332;2022-12-11T02:39:39;6.30;;;4.70;;
76989;SDS011;65924;47.250;11.332;2022-12-11T02:40:10;6.30;;;4.60;;
76989;SDS011;65924;47.250;11.332;2022-12-11T02:40:41;6.30;;;4.20;;
76989;SDS011;65924;47.250;11.332;2022-12-11T02:41:10;6.10;;;4.30;;
76989;SDS011;65924;47.250;11.332;2022-12-11T02:41:42;6.80;;;4.80;;
76989;SDS011;65924;47.250;11.332;2022-12-11T02:42:12;5.00;;;3.80;;
76989;SDS011;65924;47.250;11.332;2022-12-11T02:42:43;5.60;;;4.20;;
76989;SDS011;65924;47.250;11.332;2022-12-11T02:43:13;5.80;;;4.20;;
76989;SDS011;65924;47.250;11.332;2022-12-11T02:43:44;5.70;;;4.30;;
76989;SDS011;65924;47.250;11.332;2022-12-11T02:44:15;5.90;;;4.40;;
76989;SDS011;65924;47.250;11.332;2022-12-11T02:44:47;6.40;;;4.50;;
76989;SDS011;65924;47.250;11.332;2022-12-11T02:45:19;5.60;;;4.40;;
76989;SDS011;65924;47.250;11.332;2022-12-11T02:45:48;7.00;;;4.80;;
76989;SDS011;65924;47.250;11.332;2022-12-11T02:46:17;5.80;;;4.60;;
76989;SDS011;65924;47.250;11.332;2022-12-11T02:46:47;5.80;;;4.80;;
76989;SDS011;65924;47.250;11.332;2022-12-11T02:47:16;6.70;;;4.50;;
76989;SDS011;65924;47.250;11.332;2022-12-11T02:47:47;6.70;;;4.90;;
76989;SDS011;65924;47.250;11.332;2022-12-11T02:48:15;7.00;;;4.50;;
76989;SDS011;65924;47.250;11.332;2022-12-11T02:48:46;6.60;;;4.80;;
76989;SDS011;65924;47.250;11.332;2022-12-11T02:49:15;5.90;;;4.60;;
76989;SDS011;65924;47.250;11.332;2022-12-11T02:49:46;5.80;;;4.50;;
76989;SDS011;65924;47.250;11.332;2022-12-11T02:50:17;6.90;;;4.30;;
76989;SDS011;65924;47.250;11.332;2022-12-11T02:50:47;6.50;;;4.50;;
76989;SDS011;65924;47.250;11.332;2022-12-11T02:51:24;6.70;;;5.00;;
76989;SDS011;65924;47.250;11.332;2022-12-11T02:51:55;6.50;;;4.90;;
76989;SDS011;65924;47.250;11.332;2022-12-11T02:52:26;7.00;;;4.70;;
76989;SDS011;65924;47.250;11.332;2022-12-11T02:52:57;6.20;;;4.50;;
76989;SDS011;65924;47.250;11.332;2022-12-11T02:53:28;6.10;;;4.50;;
76989;SDS011;65924;47.250;11.332;2022-12-11T02:53:58;5.30;;;4.10;;
76989;SDS011;65924;47.250;11.332;2022-12-11T02:54:27;6.20;;;4.70;;
76989;SDS011;65924;47.250;11.332;2022-12-11T02:54:59;5.50;;;4.40;;
76989;SDS011;65924;47.250;11.332;2022-12-11T02:55:28;5.80;;;4.30;;
76989;SDS011;65924;47.250;11.332;2022-12-11T02:56:10;6.20;;;4.10;;
76989;SDS011;65924;47.250;11.332;2022-12-11T02:56:43;6.00;;;4.50;;
76989;SDS011;65924;47.250;11.332;2022-12-11T02:57:16;5.70;;;4.30;;
76989;SDS011;65924;47.250;11.332;2022-12-11T02:57:55;6.90;;;5.00;;
76989;SDS011;65924;47.250;11.332;2022-12-11T02:58:31;6.30;;;4.20;;
76989;SDS011;65924;47.250;11.332;2022-12-11T02:59:03;5.30;;;4.20;;
76989;SDS011;65924;47.250;11.332;2022-12-11T02:59:39;6.20;;;4.70;;
76989;SDS011;65924;47.250;11.332;2022-12-11T03:00:09;5.50;;;4.30;;
76989;SDS011;65924;47.250;11.332;2022-12-11T03:00:38;4.70;;;3.90;;
76989;SDS011;65924;47.250;11.332;2022-12-11T03:01:05;5.80;;;4.20;;
76989;SDS011;65924;47.250;11.332;2022-12-11T03:01:33;5.70;;;4.20;;
76989;SDS011;65924;47.250;11.332;2022-12-11T03:02:02;6.50;;;4.30;;
76989;SDS011;65924;47.250;11.332;2022-12-11T03:02:30;5.70;;;4.30;;
76989;SDS011;65924;47.250;11.332;2022-12-11T03:02:58;5.80;;;4.40;;
76989;SDS011;65924;47.250;11.332;2022-12-11T03:03:27;5.80;;;4.60;;
76989;SDS011;65924;47.250;11.332;2022-12-11T03:03:55;6.00;;;4.60;;
76989;SDS011;65924;47.250;11.332;2022-12-11T03:04:24;5.90;;;4.60;;
76989;SDS011;65924;47.250;11.332;2022-12-11T03:04:52;6.00;;;4.40;;
76989;SDS011;65924;47.250;11.332;2022-12-11T03:05:20;5.60;;;4.30;;
76989;SDS011;65924;47.250;11.332;2022-12-11T03:05:47;6.20;;;4.70;;
76989;SDS011;65924;47.250;11.332;2022-12-11T03:06:17;6.60;;;4.70;;
76989;SDS011;65924;47.250;11.332;2022-12-11T03:06:50;7.00;;;4.80;;
76989;SDS011;65924;47.250;11.332;2022-12-11T03:07:23;7.00;;;4.50;;
76989;SDS011;65924;47.250;11.332;2022-12-11T03:07:55;6.80;;;4.50;;
76989;SDS011;65924;47.250;11.332;2022-12-11T03:08:22;7.10;;;4.90;;
76989;SDS011;65924;47.250;11.332;2022-12-11T03:08:50;7.80;;;4.80;;
76989;SDS011;65924;47.250;11.332;2022-12-11T03:09:18;6.00;;;4.70;;
76989;SDS011;65924;47.250;11.332;2022-12-11T03:09:46;6.10;;;4.70;;
76989;SDS011;65924;47.250;11.332;2022-12-11T03:10:15;6.10;;;4.60;;
76989;SDS011;65924;47.250;11.332;2022-12-11T03:10:45;5.60;;;4.30;;
76989;SDS011;65924;47.250;11.332;2022-12-11T03:11:12;8.40;;;5.00;;
76989;SDS011;65924;47.250;11.332;2022-12-11T03:11:40;6.90;;;4.50;;
76989;SDS011;65924;47.250;11.332;2022-12-11T03:12:08;5.70;;;4.40;;
76989;SDS011;65924;47.250;11.332;2022-12-11T03:12:39;6.20;;;4.20;;